< < Back
Terminal Aerodrome Forecast


Current Version              Previous Versions:   1  2  3  4  5  6  7  8  9  

Terminal Aerodrome Forecast

797
FTUS42 KCHS 280500
TAFCHS
TAF
KCHS 280525Z 2806/2906 33007KT P6SM SKC
     FM281400 01010G15KT P6SM SKC
     FM281800 36006KT P6SM SKC
     FM282300 00000KT P6SM SKC=



Latest METAR

265
SAUS80 KWBC 281102
MTRCHS
METAR KCHS 281056Z 01006KT 10SM CLR 01/M02 A3034 RMK AO2 SLP274
T00111017


USA.gov is the U.S. government's official web portal to all federal, state and local government web resources and services.